Time;durP1;ratioP1;P1;durP2;ratioP2;P2;SDS_P1;SDS_P2;PMS_P1;PMS_P2;Temp;Humidity;BMP_temperature;BMP_pressure;BME280_temperature;BME280_humidity;BME280_pressure;Samples;Min_cycle;Max_cycle;Signal;HPM_P1;HPM_P2
2023/07/23 00:02:22;;;;;;;8.50;5.00;;;;;;;;;;4953625;29;20490;-73
2023/07/23 00:04:48;;;;;;;7.95;5.63;;;;;;;;;;4953326;29;20046;-73
2023/07/23 00:07:14;;;;;;;6.57;4.93;;;;;;;;;;4953523;28;20043;-74
2023/07/23 00:09:40;;;;;;;5.40;4.88;;;;;;;;;;4953368;29;20162;-73
2023/07/23 00:12:06;;;;;;;8.65;4.82;;;;;;;;;;4953355;28;20072;-71
2023/07/23 00:14:32;;;;;;;6.00;5.40;;;;;;;;;;4953412;29;20128;-72
2023/07/23 00:16:59;;;;;;;9.43;5.45;;;;;;;;;;4952977;28;20043;-71
2023/07/23 00:19:25;;;;;;;5.75;4.70;;;;;;;;;;4953353;28;20042;-72
2023/07/23 00:21:53;;;;;;;8.55;5.00;;;;;;;;;;4952956;28;20553;-71
2023/07/23 00:24:19;;;;;;;7.25;5.28;;;;;;;;;;4953206;28;20443;-72
2023/07/23 00:26:45;;;;;;;8.07;5.22;;;;;;;;;;4952653;28;20090;-72
2023/07/23 00:29:11;;;;;;;9.05;5.28;;;;;;;;;;4953171;29;20055;-73
2023/07/23 00:31:37;;;;;;;9.65;5.45;;;;;;;;;;4953003;28;20043;-71
2023/07/23 00:34:03;;;;;;;16.25;5.32;;;;;;;;;;4951589;29;20109;-72
2023/07/23 00:36:30;;;;;;;6.55;5.22;;;;;;;;;;4952928;28;20118;-73
2023/07/23 00:38:56;;;;;;;6.70;5.35;;;;;;;;;;4952508;28;20446;-71
2023/07/23 00:41:22;;;;;;;13.23;5.43;;;;;;;;;;4952715;28;20027;-73
2023/07/23 00:43:49;;;;;;;6.00;5.30;;;;;;;;;;4952517;28;20553;-73
2023/07/23 00:46:15;;;;;;;7.30;5.07;;;;;;;;;;4952833;29;20035;-72
2023/07/23 00:48:41;;;;;;;14.13;5.65;;;;;;;;;;4952470;28;20501;-72
2023/07/23 00:51:08;;;;;;;7.43;5.30;;;;;;;;;;4951522;29;20115;-72
2023/07/23 00:53:34;;;;;;;14.90;5.10;;;;;;;;;;4952663;28;20411;-71
2023/07/23 00:56:00;;;;;;;7.80;4.93;;;;;;;;;;4950719;29;20493;-72
2023/07/23 00:58:26;;;;;;;7.93;5.20;;;;;;;;;;4951466;29;20042;-73
2023/07/23 01:00:52;;;;;;;9.18;5.18;;;;;;;;;;4935015;29;20035;-73
2023/07/23 01:03:18;;;;;;;5.75;4.97;;;;;;;;;;4952562;28;20142;-73
2023/07/23 01:05:44;;;;;;;8.88;4.78;;;;;;;;;;4952047;28;20127;-71
2023/07/23 01:08:11;;;;;;;6.70;4.70;;;;;;;;;;4951272;29;20038;-72
2023/07/23 01:10:37;;;;;;;10.50;5.07;;;;;;;;;;4951099;29;20035;-72
2023/07/23 01:13:03;;;;;;;10.88;5.25;;;;;;;;;;4952364;28;20065;-72
2023/07/23 01:15:29;;;;;;;8.30;5.43;;;;;;;;;;4952225;29;20605;-72
2023/07/23 01:17:56;;;;;;;5.72;4.60;;;;;;;;;;4952113;28;20114;-72
2023/07/23 01:20:21;;;;;;;9.70;5.40;;;;;;;;;;4952218;29;20043;-72
2023/07/23 01:22:47;;;;;;;5.78;4.97;;;;;;;;;;4951984;28;20502;-73
2023/07/23 01:25:15;;;;;;;7.32;5.00;;;;;;;;;;4952027;28;20142;-73
2023/07/23 01:27:41;;;;;;;7.18;5.03;;;;;;;;;;4950869;29;20394;-73
2023/07/23 01:30:10;;;;;;;5.55;4.90;;;;;;;;;;4952025;28;20097;-72
2023/07/23 01:32:36;;;;;;;8.27;4.80;;;;;;;;;;4950919;29;20090;-72
2023/07/23 01:35:11;;;;;;;10.45;5.00;;;;;;;;;;4950781;28;20130;-72
2023/07/23 01:37:37;;;;;;;10.13;4.45;;;;;;;;;;4950803;29;20410;-73
2023/07/23 01:40:03;;;;;;;4.57;4.28;;;;;;;;;;4950299;29;20039;-72
2023/07/23 01:42:31;;;;;;;9.25;4.60;;;;;;;;;;4951879;28;20066;-73
2023/07/23 01:45:03;;;;;;;5.07;4.57;;;;;;;;;;4951741;28;20050;-73
2023/07/23 01:47:32;;;;;;;6.55;4.57;;;;;;;;;;4951930;28;20031;-72
2023/07/23 01:49:58;;;;;;;5.90;4.70;;;;;;;;;;4951860;28;20659;-72
2023/07/23 01:52:25;;;;;;;4.25;3.95;;;;;;;;;;4951882;28;20031;-72
2023/07/23 01:54:51;;;;;;;8.25;4.45;;;;;;;;;;4950448;29;20126;-73
2023/07/23 01:57:17;;;;;;;7.57;4.78;;;;;;;;;;4951701;28;20047;-73
2023/07/23 01:59:45;;;;;;;5.28;4.75;;;;;;;;;;4950570;29;20139;-73
2023/07/23 02:02:12;;;;;;;5.05;3.97;;;;;;;;;;4950603;29;20118;-72
2023/07/23 02:04:38;;;;;;;10.57;4.25;;;;;;;;;;4950568;29;20054;-72
2023/07/23 02:07:04;;;;;;;5.57;4.57;;;;;;;;;;4950302;29;20045;-71
2023/07/23 02:09:30;;;;;;;8.38;4.93;;;;;;;;;;4951737;29;20585;-73
2023/07/23 02:11:55;;;;;;;6.00;4.72;;;;;;;;;;4950294;29;20078;-73
2023/07/23 02:14:21;;;;;;;5.35;4.60;;;;;;;;;;4950590;29;20067;-72
2023/07/23 02:16:48;;;;;;;5.00;4.35;;;;;;;;;;4950350;29;20046;-72
2023/07/23 02:19:14;;;;;;;6.25;4.90;;;;;;;;;;4951870;28;20031;-72
2023/07/23 02:21:40;;;;;;;7.07;4.53;;;;;;;;;;4951623;28;20082;-72
2023/07/23 02:24:06;;;;;;;8.10;5.03;;;;;;;;;;4951480;28;20618;-74
2023/07/23 02:26:32;;;;;;;6.20;4.90;;;;;;;;;;4951599;28;20043;-72
2023/07/23 02:28:58;;;;;;;6.32;5.15;;;;;;;;;;4951366;28;20064;-73
2023/07/23 02:31:24;;;;;;;6.30;5.57;;;;;;;;;;4950404;29;20066;-73
2023/07/23 02:33:51;;;;;;;8.18;5.65;;;;;;;;;;4951378;28;20039;-73
2023/07/23 02:36:17;;;;;;;9.45;5.88;;;;;;;;;;4952483;29;20046;-73
2023/07/23 02:38:43;;;;;;;10.63;5.28;;;;;;;;;;4952328;28;20047;-72
2023/07/23 02:41:09;;;;;;;9.00;5.57;;;;;;;;;;4951314;28;20501;-72
2023/07/23 02:43:36;;;;;;;13.52;5.15;;;;;;;;;;4951513;28;20051;-72
2023/07/23 02:46:02;;;;;;;8.27;4.80;;;;;;;;;;4951026;28;20040;-73
2023/07/23 02:48:28;;;;;;;11.98;5.18;;;;;;;;;;4951635;28;20046;-71
2023/07/23 02:50:54;;;;;;;5.40;4.93;;;;;;;;;;4951537;28;20494;-72
2023/07/23 02:53:20;;;;;;;7.53;5.10;;;;;;;;;;4954958;28;20063;-73
2023/07/23 02:55:46;;;;;;;9.90;4.97;;;;;;;;;;4953479;29;20146;-72
2023/07/23 02:58:12;;;;;;;5.72;4.60;;;;;;;;;;4971412;28;20055;-71
2023/07/23 03:00:39;;;;;;;5.32;4.82;;;;;;;;;;4954292;29;20391;-71
2023/07/23 03:03:06;;;;;;;5.30;4.85;;;;;;;;;;4957086;29;20051;-73
2023/07/23 03:05:36;;;;;;;5.85;4.80;;;;;;;;;;4957033;29;20054;-74
2023/07/23 03:08:05;;;;;;;6.60;5.00;;;;;;;;;;4955038;29;20046;-72
2023/07/23 03:10:31;;;;;;;6.47;4.60;;;;;;;;;;4953727;29;20522;-73
2023/07/23 03:12:57;;;;;;;8.63;4.80;;;;;;;;;;4954614;29;20047;-71
2023/07/23 03:15:23;;;;;;;6.53;4.68;;;;;;;;;;4955529;28;20506;-71
2023/07/23 03:17:51;;;;;;;9.82;4.57;;;;;;;;;;4953747;29;20035;-73
2023/07/23 03:20:17;;;;;;;8.90;4.40;;;;;;;;;;4955251;28;20035;-73
2023/07/23 03:22:43;;;;;;;5.22;4.40;;;;;;;;;;4955869;28;20036;-73
2023/07/23 03:25:09;;;;;;;6.45;4.70;;;;;;;;;;4955432;28;20394;-73
2023/07/23 03:27:36;;;;;;;5.00;4.45;;;;;;;;;;4955358;28;20039;-73
2023/07/23 03:30:03;;;;;;;6.95;4.70;;;;;;;;;;4955091;28;20035;-72
2023/07/23 03:32:31;;;;;;;9.25;4.40;;;;;;;;;;4953889;29;20042;-73
2023/07/23 03:34:58;;;;;;;5.68;4.85;;;;;;;;;;4955003;28;20039;-73
2023/07/23 03:37:25;;;;;;;6.07;4.55;;;;;;;;;;4953426;29;20043;-73
2023/07/23 03:39:50;;;;;;;5.47;4.85;;;;;;;;;;4954169;28;20413;-72
2023/07/23 03:42:17;;;;;;;10.40;4.65;;;;;;;;;;4936652;29;20521;-73
2023/07/23 03:44:43;;;;;;;6.20;5.05;;;;;;;;;;4953921;28;20125;-73
2023/07/23 03:47:10;;;;;;;6.93;4.78;;;;;;;;;;4952427;29;20039;-73
2023/07/23 03:49:36;;;;;;;8.10;4.07;;;;;;;;;;4953878;29;20046;-72
2023/07/23 03:52:04;;;;;;;6.90;4.80;;;;;;;;;;4953555;28;20043;-72
2023/07/23 03:54:30;;;;;;;7.07;4.60;;;;;;;;;;4953741;28;20028;-73
2023/07/23 03:56:56;;;;;;;6.72;4.68;;;;;;;;;;4953212;28;20075;-72
2023/07/23 03:59:22;;;;;;;7.63;4.70;;;;;;;;;;4953749;28;20122;-72
2023/07/23 04:01:48;;;;;;;5.63;4.10;;;;;;;;;;4951838;28;20257;-73
2023/07/23 04:04:14;;;;;;;5.05;4.10;;;;;;;;;;4951997;29;20043;-73
2023/07/23 04:06:40;;;;;;;4.63;4.22;;;;;;;;;;4953463;28;20086;-73
2023/07/23 04:09:08;;;;;;;8.82;4.80;;;;;;;;;;4953205;28;20046;-74
2023/07/23 04:11:34;;;;;;;6.63;5.13;;;;;;;;;;4952079;29;20387;-74
2023/07/23 04:13:59;;;;;;;6.45;4.35;;;;;;;;;;4951904;29;20122;-73
2023/07/23 04:16:25;;;;;;;4.80;4.30;;;;;;;;;;4953278;28;20035;-73
2023/07/23 04:18:52;;;;;;;6.25;4.43;;;;;;;;;;4953333;29;20545;-73
2023/07/23 04:21:24;;;;;;;4.88;4.38;;;;;;;;;;4952978;28;20035;-73
2023/07/23 04:23:50;;;;;;;4.72;4.07;;;;;;;;;;4953179;28;20110;-74
2023/07/23 04:26:16;;;;;;;6.80;4.22;;;;;;;;;;4952952;28;20066;-73
2023/07/23 04:28:42;;;;;;;8.48;5.00;;;;;;;;;;4952088;29;20039;-73
2023/07/23 04:31:08;;;;;;;6.60;4.05;;;;;;;;;;4951690;29;20403;-73
2023/07/23 04:33:35;;;;;;;5.93;4.05;;;;;;;;;;4953180;28;20077;-74
2023/07/23 04:36:03;;;;;;;5.07;3.80;;;;;;;;;;4952738;29;20043;-74
2023/07/23 04:38:28;;;;;;;5.40;3.60;;;;;;;;;;4953122;28;20126;-73
2023/07/23 04:40:55;;;;;;;8.80;4.20;;;;;;;;;;4952999;28;20027;-73
2023/07/23 04:43:21;;;;;;;7.85;4.07;;;;;;;;;;4953785;28;20106;-72
2023/07/23 04:45:47;;;;;;;11.00;4.15;;;;;;;;;;4953595;28;20410;-73
2023/07/23 04:48:14;;;;;;;7.75;4.47;;;;;;;;;;4953272;28;20050;-73
2023/07/23 04:50:40;;;;;;;5.55;3.70;;;;;;;;;;4954329;29;20093;-73
2023/07/23 04:53:07;;;;;;;6.55;3.20;;;;;;;;;;4954399;28;20526;-72
2023/07/23 04:55:32;;;;;;;6.53;4.03;;;;;;;;;;4954174;28;20047;-72
2023/07/23 04:57:59;;;;;;;4.03;3.72;;;;;;;;;;4954464;28;20126;-73
2023/07/23 05:00:25;;;;;;;5.90;4.13;;;;;;;;;;4954748;29;20098;-73
2023/07/23 05:02:50;;;;;;;6.63;3.70;;;;;;;;;;4954423;28;20046;-72
2023/07/23 05:05:16;;;;;;;5.50;4.35;;;;;;;;;;4951475;28;20047;-71
2023/07/23 05:07:43;;;;;;;5.10;3.67;;;;;;;;;;4952404;29;20114;-73
2023/07/23 05:10:09;;;;;;;4.03;3.40;;;;;;;;;;4935010;29;20065;-73
2023/07/23 05:12:34;;;;;;;5.22;3.88;;;;;;;;;;4952408;28;20039;-74
2023/07/23 05:15:10;;;;;;;4.82;3.85;;;;;;;;;;4950063;28;20556;-73
2023/07/23 05:17:36;;;;;;;12.38;3.33;;;;;;;;;;4951030;29;20039;-73
2023/07/23 05:20:05;;;;;;;11.02;4.00;;;;;;;;;;4951993;29;20805;-72
2023/07/23 05:22:31;;;;;;;5.13;3.47;;;;;;;;;;4952239;28;20034;-72
2023/07/23 05:24:57;;;;;;;6.90;3.30;;;;;;;;;;4952676;28;20445;-73
2023/07/23 05:27:23;;;;;;;7.22;3.50;;;;;;;;;;4953008;28;20031;-72
2023/07/23 05:29:49;;;;;;;6.35;3.38;;;;;;;;;;4952302;28;20039;-73
2023/07/23 05:32:15;;;;;;;7.90;3.20;;;;;;;;;;4951897;28;20065;-73
2023/07/23 05:34:41;;;;;;;6.30;3.17;;;;;;;;;;4950820;29;20089;-73
2023/07/23 05:37:07;;;;;;;9.15;3.30;;;;;;;;;;4951740;29;20039;-73
2023/07/23 05:39:33;;;;;;;7.10;3.40;;;;;;;;;;4952133;28;20461;-73
2023/07/23 05:41:59;;;;;;;7.78;3.80;;;;;;;;;;4951712;28;20039;-71
2023/07/23 05:44:25;;;;;;;5.70;3.33;;;;;;;;;;4951970;28;20047;-73
2023/07/23 05:46:51;;;;;;;4.60;3.17;;;;;;;;;;4951977;28;20524;-72
2023/07/23 05:49:17;;;;;;;5.47;3.40;;;;;;;;;;4951707;28;20039;-73
2023/07/23 05:51:44;;;;;;;3.60;3.10;;;;;;;;;;4951824;28;20544;-72
2023/07/23 05:54:10;;;;;;;5.65;3.20;;;;;;;;;;4951602;28;20086;-73
2023/07/23 05:56:36;;;;;;;6.45;3.22;;;;;;;;;;4950517;29;20114;-72
2023/07/23 05:59:02;;;;;;;4.15;2.88;;;;;;;;;;4951770;28;20062;-73
2023/07/23 06:01:28;;;;;;;6.50;2.75;;;;;;;;;;4950904;29;20035;-73
2023/07/23 06:03:54;;;;;;;7.97;3.00;;;;;;;;;;4952553;28;20535;-73
2023/07/23 06:06:21;;;;;;;5.88;2.90;;;;;;;;;;4953757;28;20031;-73
2023/07/23 06:08:48;;;;;;;3.20;2.90;;;;;;;;;;4954885;29;20045;-72
2023/07/23 06:11:13;;;;;;;6.80;3.00;;;;;;;;;;4951047;29;20034;-74
2023/07/23 06:13:39;;;;;;;9.15;3.08;;;;;;;;;;4950945;29;20039;-72
2023/07/23 06:16:05;;;;;;;10.55;3.08;;;;;;;;;;4951426;28;20486;-74
2023/07/23 06:18:35;;;;;;;4.72;2.75;;;;;;;;;;4951611;28;20039;-74
2023/07/23 06:21:04;;;;;;;6.40;3.00;;;;;;;;;;4950276;29;20040;-72
2023/07/23 06:23:30;;;;;;;4.53;2.75;;;;;;;;;;4951628;28;20510;-74
2023/07/23 06:25:56;;;;;;;7.22;2.58;;;;;;;;;;4953350;28;20544;-74
2023/07/23 06:28:23;;;;;;;6.28;2.85;;;;;;;;;;4954961;29;20043;-73
2023/07/23 06:30:52;;;;;;;4.68;2.80;;;;;;;;;;4954047;29;20039;-72
2023/07/23 06:33:18;;;;;;;3.63;2.58;;;;;;;;;;4954074;29;20050;-73
2023/07/23 06:35:45;;;;;;;8.07;3.00;;;;;;;;;;4955269;29;20039;-72
2023/07/23 06:38:10;;;;;;;10.73;3.33;;;;;;;;;;4954965;28;20035;-72
2023/07/23 06:40:36;;;;;;;5.43;3.00;;;;;;;;;;4954016;29;20450;-75
2023/07/23 06:43:02;;;;;;;4.63;2.92;;;;;;;;;;4954693;28;20047;-73
2023/07/23 06:45:28;;;;;;;9.90;4.00;;;;;;;;;;4955084;29;20528;-73
2023/07/23 06:47:54;;;;;;;5.05;3.15;;;;;;;;;;4954918;29;20070;-72
2023/07/23 06:50:21;;;;;;;6.35;3.20;;;;;;;;;;4954648;28;20043;-72
2023/07/23 06:52:47;;;;;;;6.95;2.90;;;;;;;;;;4954722;28;20039;-73
2023/07/23 06:55:13;;;;;;;4.85;3.05;;;;;;;;;;4954360;29;20387;-73
2023/07/23 06:57:39;;;;;;;6.05;4.22;;;;;;;;;;4954817;29;20094;-73
2023/07/23 07:00:08;;;;;;;3.33;3.03;;;;;;;;;;4954618;28;20109;-73
2023/07/23 07:02:34;;;;;;;3.80;3.05;;;;;;;;;;4954830;28;20430;-75
2023/07/23 07:05:00;;;;;;;5.00;2.83;;;;;;;;;;4954729;28;20049;-73
2023/07/23 07:07:26;;;;;;;5.57;3.67;;;;;;;;;;4954428;28;20031;-73
2023/07/23 07:09:52;;;;;;;7.25;3.45;;;;;;;;;;4954679;28;20038;-72
2023/07/23 07:12:18;;;;;;;6.63;3.38;;;;;;;;;;4954290;28;20138;-73
2023/07/23 07:14:44;;;;;;;5.28;3.35;;;;;;;;;;4953383;29;20565;-73
2023/07/23 07:17:10;;;;;;;3.78;3.40;;;;;;;;;;4954070;28;20501;-73
2023/07/23 07:19:36;;;;;;;4.22;3.45;;;;;;;;;;4954582;29;20043;-74
2023/07/23 07:22:02;;;;;;;4.72;3.78;;;;;;;;;;4954355;28;20035;-73
2023/07/23 07:24:28;;;;;;;7.63;3.90;;;;;;;;;;4954135;28;20054;-73
2023/07/23 07:26:55;;;;;;;5.85;3.42;;;;;;;;;;4954199;28;20080;-74
2023/07/23 07:29:21;;;;;;;7.10;3.63;;;;;;;;;;4954209;29;20066;-73
2023/07/23 07:31:48;;;;;;;5.78;3.60;;;;;;;;;;4952950;29;20070;-72
2023/07/23 07:34:14;;;;;;;7.30;3.42;;;;;;;;;;4937335;29;20035;-73
2023/07/23 07:36:40;;;;;;;9.18;3.42;;;;;;;;;;4953408;28;20465;-74
2023/07/23 07:39:06;;;;;;;6.78;3.80;;;;;;;;;;4953640;29;20031;-73
2023/07/23 07:41:32;;;;;;;6.35;3.42;;;;;;;;;;4954081;28;20125;-74
2023/07/23 07:43:58;;;;;;;7.45;3.30;;;;;;;;;;4953952;29;20050;-74
2023/07/23 07:46:24;;;;;;;7.70;3.08;;;;;;;;;;4953785;29;20135;-74
2023/07/23 07:48:50;;;;;;;3.63;3.33;;;;;;;;;;4953802;28;20039;-73
2023/07/23 07:51:16;;;;;;;3.28;2.97;;;;;;;;;;4953759;28;20414;-74
2023/07/23 07:53:42;;;;;;;3.45;3.13;;;;;;;;;;4953675;28;20057;-74
2023/07/23 07:56:13;;;;;;;3.10;2.90;;;;;;;;;;4953483;28;20596;-74
2023/07/23 07:58:40;;;;;;;3.60;3.30;;;;;;;;;;4953767;28;20556;-73
2023/07/23 08:01:06;;;;;;;3.30;2.97;;;;;;;;;;4953600;28;20035;-73
2023/07/23 08:03:32;;;;;;;4.30;2.90;;;;;;;;;;4953329;28;20047;-74
2023/07/23 08:05:58;;;;;;;4.82;3.30;;;;;;;;;;4952299;29;20569;-74
2023/07/23 08:08:25;;;;;;;5.07;3.88;;;;;;;;;;4953178;28;20062;-75
2023/07/23 08:10:55;;;;;;;6.80;3.15;;;;;;;;;;4953487;28;20126;-74
2023/07/23 08:13:21;;;;;;;3.70;3.40;;;;;;;;;;4953278;28;20039;-74
2023/07/23 08:15:47;;;;;;;5.90;3.08;;;;;;;;;;4955596;28;20518;-74
2023/07/23 08:18:14;;;;;;;4.85;2.92;;;;;;;;;;4952957;29;20035;-74
2023/07/23 08:20:41;;;;;;;5.25;3.20;;;;;;;;;;4952298;29;20133;-74
2023/07/23 08:23:07;;;;;;;3.40;3.10;;;;;;;;;;4953108;28;20571;-73
2023/07/23 08:25:33;;;;;;;4.07;2.80;;;;;;;;;;4967852;28;20043;-74
2023/07/23 08:28:00;;;;;;;3.30;3.00;;;;;;;;;;4952907;28;20093;-74
2023/07/23 08:30:28;;;;;;;3.45;3.15;;;;;;;;;;4952946;28;20035;-74
2023/07/23 08:32:55;;;;;;;2.80;2.63;;;;;;;;;;4951791;29;20129;-73
2023/07/23 08:35:21;;;;;;;2.67;2.47;;;;;;;;;;4951460;29;20035;-73
2023/07/23 08:37:48;;;;;;;4.93;2.70;;;;;;;;;;4953410;29;20043;-74
2023/07/23 08:40:15;;;;;;;5.10;2.83;;;;;;;;;;4951409;29;20218;-73
2023/07/23 08:42:53;;;;;;;4.35;2.67;;;;;;;;;;4952489;29;20082;-74
2023/07/23 08:45:38;;;;;;;2.67;2.47;;;;;;;;;;4952393;28;20039;-74
2023/07/23 08:48:17;;;;;;;6.80;3.40;;;;;;;;;;4952403;28;20097;-74
2023/07/23 08:50:44;;;;;;;3.40;3.10;;;;;;;;;;4951533;29;20089;-73
2023/07/23 08:53:10;;;;;;;3.20;3.00;;;;;;;;;;4951156;29;20409;-74
2023/07/23 08:55:37;;;;;;;3.45;3.10;;;;;;;;;;4952310;28;20082;-74
2023/07/23 08:58:04;;;;;;;3.15;2.97;;;;;;;;;;4951480;29;20069;-74
2023/07/23 09:00:30;;;;;;;3.45;3.25;;;;;;;;;;4951293;29;20038;-73
2023/07/23 09:03:02;;;;;;;6.78;3.15;;;;;;;;;;4950831;29;20129;-73
2023/07/23 09:05:29;;;;;;;3.08;2.88;;;;;;;;;;4952624;28;20138;-74
2023/07/23 09:07:55;;;;;;;3.22;2.90;;;;;;;;;;4952687;28;20031;-74
2023/07/23 09:10:21;;;;;;;7.53;3.10;;;;;;;;;;4953450;29;20042;-74
2023/07/23 09:12:46;;;;;;;2.70;2.50;;;;;;;;;;4957910;29;20075;-75
2023/07/23 09:15:13;;;;;;;2.85;2.65;;;;;;;;;;4958531;29;20047;-75
2023/07/23 09:17:39;;;;;;;2.85;2.65;;;;;;;;;;4953927;28;20114;-74
2023/07/23 09:20:09;;;;;;;2.67;2.58;;;;;;;;;;4952331;28;20179;-75
2023/07/23 09:22:35;;;;;;;4.75;3.10;;;;;;;;;;4952204;28;20174;-74
2023/07/23 09:25:01;;;;;;;3.58;3.20;;;;;;;;;;4952074;29;20054;-75
2023/07/23 09:27:36;;;;;;;3.03;2.83;;;;;;;;;;4950890;29;20031;-73
2023/07/23 09:30:03;;;;;;;3.15;2.95;;;;;;;;;;4952277;28;20035;-73
2023/07/23 09:32:30;;;;;;;2.90;2.70;;;;;;;;;;4951937;28;20039;-74
2023/07/23 09:34:57;;;;;;;3.20;3.00;;;;;;;;;;4952078;28;20417;-74
2023/07/23 09:37:23;;;;;;;3.22;2.97;;;;;;;;;;4950670;29;20073;-74
2023/07/23 09:39:49;;;;;;;3.17;2.90;;;;;;;;;;4952521;29;20043;-75
2023/07/23 09:42:20;;;;;;;8.95;2.95;;;;;;;;;;4934850;29;20035;-74
2023/07/23 09:44:46;;;;;;;3.40;3.10;;;;;;;;;;4952109;28;20051;-75
2023/07/23 09:47:11;;;;;;;3.90;2.42;;;;;;;;;;4952162;28;20095;-74
2023/07/23 09:49:38;;;;;;;2.72;2.53;;;;;;;;;;4950523;29;20585;-74
2023/07/23 09:52:06;;;;;;;3.90;3.30;;;;;;;;;;4951772;28;20122;-74
2023/07/23 09:54:33;;;;;;;3.10;2.90;;;;;;;;;;4951713;28;20046;-73
2023/07/23 09:56:59;;;;;;;3.33;3.10;;;;;;;;;;4951752;29;20059;-75
2023/07/23 09:59:25;;;;;;;5.30;3.30;;;;;;;;;;4951873;28;20090;-75
2023/07/23 10:01:51;;;;;;;4.80;3.05;;;;;;;;;;4955413;28;20131;-74
2023/07/23 10:04:17;;;;;;;5.47;3.17;;;;;;;;;;4954154;29;20062;-73
2023/07/23 10:06:43;;;;;;;3.28;2.97;;;;;;;;;;4954646;29;20032;-74
2023/07/23 10:09:10;;;;;;;3.47;3.00;;;;;;;;;;4954528;29;20035;-74
2023/07/23 10:11:36;;;;;;;8.18;3.00;;;;;;;;;;4954430;29;20024;-74
2023/07/23 10:14:02;;;;;;;4.53;2.80;;;;;;;;;;4954506;29;20042;-72
2023/07/23 10:16:29;;;;;;;4.30;2.92;;;;;;;;;;4955570;29;20043;-75
2023/07/23 10:18:55;;;;;;;3.35;2.97;;;;;;;;;;4954271;29;20062;-73
2023/07/23 10:21:21;;;;;;;3.45;3.15;;;;;;;;;;4954968;28;20545;-74
2023/07/23 10:23:55;;;;;;;6.35;2.95;;;;;;;;;;4953991;29;20078;-74
2023/07/23 10:26:21;;;;;;;4.07;3.28;;;;;;;;;;4953787;29;20035;-75
2023/07/23 10:28:48;;;;;;;3.70;3.40;;;;;;;;;;4955216;28;20086;-73
2023/07/23 10:31:17;;;;;;;3.20;3.00;;;;;;;;;;4955172;28;20039;-74
2023/07/23 10:33:45;;;;;;;3.92;3.60;;;;;;;;;;4955109;28;20054;-73
2023/07/23 10:36:11;;;;;;;3.72;3.42;;;;;;;;;;4955107;28;20150;-74
2023/07/23 10:38:38;;;;;;;4.25;3.85;;;;;;;;;;4954825;28;20046;-74
2023/07/23 10:41:04;;;;;;;3.65;3.40;;;;;;;;;;4955173;28;20509;-74
2023/07/23 10:43:40;;;;;;;3.85;3.40;;;;;;;;;;4953847;29;20126;-74
2023/07/23 10:46:07;;;;;;;4.50;3.58;;;;;;;;;;4953977;29;20054;-72
2023/07/23 10:48:39;;;;;;;8.95;4.03;;;;;;;;;;4954795;28;20032;-75
2023/07/23 10:51:06;;;;;;;4.82;3.65;;;;;;;;;;4953913;29;20042;-73
2023/07/23 10:53:32;;;;;;;5.50;4.85;;;;;;;;;;4937454;29;20521;-74
2023/07/23 10:56:02;;;;;;;6.20;4.10;;;;;;;;;;4954610;28;20061;-74
2023/07/23 10:58:28;;;;;;;3.70;3.40;;;;;;;;;;4954632;28;20043;-73
2023/07/23 11:00:58;;;;;;;3.97;3.78;;;;;;;;;;4955018;28;20098;-72
2023/07/23 11:03:24;;;;;;;6.60;3.72;;;;;;;;;;4954292;29;20043;-74
2023/07/23 11:05:50;;;;;;;4.68;4.30;;;;;;;;;;4957780;29;20089;-74
2023/07/23 11:08:18;;;;;;;5.70;4.00;;;;;;;;;;4953702;29;20047;-74
2023/07/23 11:10:48;;;;;;;3.95;3.65;;;;;;;;;;4954785;28;20043;-74
2023/07/23 11:13:15;;;;;;;4.25;3.85;;;;;;;;;;4952164;29;20035;-74
2023/07/23 11:15:41;;;;;;;4.25;4.05;;;;;;;;;;4954438;28;20031;-73
2023/07/23 11:18:08;;;;;;;4.95;4.28;;;;;;;;;;4954380;29;20043;-74
2023/07/23 11:20:34;;;;;;;4.32;3.78;;;;;;;;;;4954527;29;20489;-73
2023/07/23 11:23:01;;;;;;;5.65;4.03;;;;;;;;;;4954342;28;20038;-73
2023/07/23 11:25:27;;;;;;;5.00;4.60;;;;;;;;;;4954250;28;20034;-73
2023/07/23 11:27:53;;;;;;;4.07;3.78;;;;;;;;;;4954421;28;20039;-73
2023/07/23 11:30:19;;;;;;;4.72;4.28;;;;;;;;;;4953416;29;20189;-74
2023/07/23 11:32:48;;;;;;;4.40;3.97;;;;;;;;;;4954029;28;20039;-75
2023/07/23 11:35:14;;;;;;;4.28;3.88;;;;;;;;;;4954252;28;20510;-74
2023/07/23 11:37:49;;;;;;;4.25;3.78;;;;;;;;;;4953818;29;20178;-74
2023/07/23 11:40:21;;;;;;;4.18;3.88;;;;;;;;;;4954258;29;20046;-75
2023/07/23 11:42:48;;;;;;;3.83;3.53;;;;;;;;;;4953891;28;20042;-74
2023/07/23 11:45:14;;;;;;;4.72;4.28;;;;;;;;;;4954590;28;20046;-74
2023/07/23 11:47:49;;;;;;;6.00;3.95;;;;;;;;;;4953701;28;20035;-73
2023/07/23 11:50:18;;;;;;;7.80;4.38;;;;;;;;;;4953961;28;20133;-74
2023/07/23 11:52:48;;;;;;;4.20;3.80;;;;;;;;;;4952586;29;20038;-74
2023/07/23 11:55:20;;;;;;;4.30;4.00;;;;;;;;;;4953647;28;20047;-74
2023/07/23 11:57:56;;;;;;;3.85;3.65;;;;;;;;;;4953601;28;20027;-74
2023/07/23 12:00:25;;;;;;;3.95;3.30;;;;;;;;;;4953637;28;20106;-74
2023/07/23 12:02:51;;;;;;;3.80;3.60;;;;;;;;;;4953870;29;20035;-74
2023/07/23 12:05:17;;;;;;;3.85;3.65;;;;;;;;;;4952892;29;20528;-74
2023/07/23 12:07:43;;;;;;;3.60;3.30;;;;;;;;;;4936457;29;20035;-74
2023/07/23 12:10:09;;;;;;;4.80;3.90;;;;;;;;;;4954196;28;20039;-73
2023/07/23 12:12:35;;;;;;;3.97;3.78;;;;;;;;;;4954091;29;20034;-74
2023/07/23 12:15:03;;;;;;;4.07;3.65;;;;;;;;;;4954436;28;20476;-73
2023/07/23 12:17:31;;;;;;;4.13;3.67;;;;;;;;;;4956318;29;20459;-73
2023/07/23 12:19:56;;;;;;;4.53;4.10;;;;;;;;;;4961267;28;20027;-74
2023/07/23 12:22:24;;;;;;;4.43;4.13;;;;;;;;;;4957344;29;20039;-74
2023/07/23 12:24:50;;;;;;;3.83;3.63;;;;;;;;;;4953384;29;20422;-73
2023/07/23 12:27:15;;;;;;;3.72;3.25;;;;;;;;;;4953408;28;20042;-74
2023/07/23 12:29:42;;;;;;;4.95;3.70;;;;;;;;;;4953094;28;20042;-74
2023/07/23 12:32:09;;;;;;;4.00;3.13;;;;;;;;;;4953412;28;20027;-73
2023/07/23 12:34:35;;;;;;;3.33;3.10;;;;;;;;;;4953182;29;20042;-75
2023/07/23 12:37:02;;;;;;;2.90;2.72;;;;;;;;;;4952215;29;20039;-76
2023/07/23 12:39:28;;;;;;;3.05;2.80;;;;;;;;;;4951840;29;20041;-74
2023/07/23 12:41:53;;;;;;;3.92;3.38;;;;;;;;;;4951967;29;20047;-74
2023/07/23 12:44:19;;;;;;;5.07;3.60;;;;;;;;;;4952897;28;20043;-73
2023/07/23 12:46:45;;;;;;;4.10;3.70;;;;;;;;;;4953367;28;20042;-74
2023/07/23 12:49:11;;;;;;;3.55;3.35;;;;;;;;;;4953141;28;20031;-73
2023/07/23 12:51:38;;;;;;;3.97;3.58;;;;;;;;;;4951553;29;20505;-72
2023/07/23 12:54:04;;;;;;;3.78;3.50;;;;;;;;;;4952883;28;20052;-74
2023/07/23 12:56:31;;;;;;;3.85;3.55;;;;;;;;;;4951352;29;20117;-74
2023/07/23 12:58:57;;;;;;;6.13;3.58;;;;;;;;;;4951464;29;20039;-74
2023/07/23 13:01:23;;;;;;;4.50;4.10;;;;;;;;;;4952726;28;20462;-74
2023/07/23 13:03:49;;;;;;;3.58;3.38;;;;;;;;;;4952395;28;20075;-74
2023/07/23 13:06:15;;;;;;;4.25;3.88;;;;;;;;;;4952690;28;20035;-74
2023/07/23 13:08:41;;;;;;;4.20;3.80;;;;;;;;;;4952403;29;20061;-74
2023/07/23 13:11:07;;;;;;;4.15;3.85;;;;;;;;;;4951371;29;20043;-74
2023/07/23 13:13:33;;;;;;;3.50;3.30;;;;;;;;;;4952521;28;20502;-74
2023/07/23 13:16:00;;;;;;;3.88;3.58;;;;;;;;;;4952606;28;20046;-74
2023/07/23 13:18:25;;;;;;;4.40;3.70;;;;;;;;;;4952621;28;20585;-74
2023/07/23 13:20:52;;;;;;;5.05;3.50;;;;;;;;;;4952505;28;20110;-72
2023/07/23 13:23:18;;;;;;;3.75;3.45;;;;;;;;;;4952322;28;20047;-74
2023/07/23 13:25:44;;;;;;;4.68;3.78;;;;;;;;;;4935059;29;20046;-74
2023/07/23 13:28:11;;;;;;;3.45;3.25;;;;;;;;;;4950922;29;20043;-74
2023/07/23 13:30:37;;;;;;;2.65;2.45;;;;;;;;;;4952143;29;20039;-74
2023/07/23 13:33:03;;;;;;;3.45;3.25;;;;;;;;;;4952274;28;20055;-73
2023/07/23 13:35:29;;;;;;;3.22;3.00;;;;;;;;;;4951385;28;20098;-74
2023/07/23 13:37:56;;;;;;;3.22;3.03;;;;;;;;;;4952183;28;20039;-73
2023/07/23 13:40:22;;;;;;;4.07;3.08;;;;;;;;;;4952268;28;20090;-73
2023/07/23 13:42:48;;;;;;;2.80;2.70;;;;;;;;;;4951916;29;20047;-74
2023/07/23 13:45:14;;;;;;;2.75;2.55;;;;;;;;;;4952118;28;20057;-73
2023/07/23 13:47:39;;;;;;;2.47;2.08;;;;;;;;;;4952014;29;20064;-73
2023/07/23 13:50:05;;;;;;;3.20;2.97;;;;;;;;;;4952424;28;20035;-74
2023/07/23 13:52:32;;;;;;;2.75;2.63;;;;;;;;;;4953305;28;20031;-73
2023/07/23 13:54:58;;;;;;;3.10;2.88;;;;;;;;;;4954985;28;20519;-73
2023/07/23 13:57:24;;;;;;;3.10;2.90;;;;;;;;;;4952095;29;20077;-74
2023/07/23 13:59:50;;;;;;;2.95;2.80;;;;;;;;;;4951852;28;20477;-73
2023/07/23 14:02:16;;;;;;;3.13;2.90;;;;;;;;;;4951012;29;20066;-73
2023/07/23 14:04:42;;;;;;;3.92;2.70;;;;;;;;;;4951803;29;20074;-74
2023/07/23 14:07:08;;;;;;;6.18;2.70;;;;;;;;;;4952085;29;20035;-74
2023/07/23 14:09:34;;;;;;;2.55;2.35;;;;;;;;;;4951928;29;20043;-73
2023/07/23 14:12:00;;;;;;;2.30;2.10;;;;;;;;;;4952107;28;20050;-74
2023/07/23 14:14:26;;;;;;;3.65;2.20;;;;;;;;;;4951857;29;20050;-74
2023/07/23 14:16:52;;;;;;;2.45;2.35;;;;;;;;;;4951631;28;20489;-74
2023/07/23 14:19:18;;;;;;;2.17;2.08;;;;;;;;;;4951639;28;20132;-72
2023/07/23 14:21:44;;;;;;;2.70;2.50;;;;;;;;;;4951896;28;20046;-73
2023/07/23 14:24:10;;;;;;;2.53;2.40;;;;;;;;;;4951772;28;20043;-74
2023/07/23 14:26:36;;;;;;;2.97;2.78;;;;;;;;;;4951669;28;20062;-74
2023/07/23 14:29:02;;;;;;;2.75;2.55;;;;;;;;;;4951661;29;20039;-74
2023/07/23 14:31:28;;;;;;;2.38;2.28;;;;;;;;;;4950570;29;20360;-73
2023/07/23 14:33:55;;;;;;;3.53;3.00;;;;;;;;;;4951403;28;20050;-73
2023/07/23 14:36:21;;;;;;;5.85;2.80;;;;;;;;;;4951863;28;20630;-74
2023/07/23 14:38:47;;;;;;;2.75;2.55;;;;;;;;;;4951882;29;20043;-74
2023/07/23 14:41:13;;;;;;;3.47;3.28;;;;;;;;;;4951844;29;20118;-74